sensor_id;sensor_type;location;lat;lon;timestamp;P1;durP1;ratioP1;P2;durP2;ratioP2
43606;SDS011;29197;44.788;10.366;2023-09-19T00:00:40;11.02;;;3.03;;
43606;SDS011;29197;44.788;10.366;2023-09-19T00:03:32;7.85;;;3.30;;
43606;SDS011;29197;44.788;10.366;2023-09-19T00:06:20;8.52;;;3.25;;
43606;SDS011;29197;44.788;10.366;2023-09-19T00:09:09;13.25;;;3.53;;
43606;SDS011;29197;44.788;10.366;2023-09-19T00:11:58;11.20;;;2.88;;
43606;SDS011;29197;44.788;10.366;2023-09-19T00:14:47;11.60;;;3.30;;
43606;SDS011;29197;44.788;10.366;2023-09-19T00:17:35;6.07;;;2.67;;
43606;SDS011;29197;44.788;10.366;2023-09-19T00:20:26;7.43;;;3.03;;
43606;SDS011;29197;44.788;10.366;2023-09-19T00:23:16;11.15;;;3.28;;
43606;SDS011;29197;44.788;10.366;2023-09-19T00:26:06;17.70;;;4.28;;
43606;SDS011;29197;44.788;10.366;2023-09-19T00:28:55;11.48;;;3.42;;
43606;SDS011;29197;44.788;10.366;2023-09-19T00:31:55;9.88;;;3.80;;
43606;SDS011;29197;44.788;10.366;2023-09-19T00:34:46;11.43;;;3.17;;
43606;SDS011;29197;44.788;10.366;2023-09-19T00:37:36;9.38;;;4.20;;
43606;SDS011;29197;44.788;10.366;2023-09-19T00:40:26;7.88;;;3.80;;
43606;SDS011;29197;44.788;10.366;2023-09-19T00:43:16;13.13;;;4.22;;
43606;SDS011;29197;44.788;10.366;2023-09-19T00:46:05;10.13;;;3.58;;
43606;SDS011;29197;44.788;10.366;2023-09-19T00:48:55;5.82;;;3.08;;
43606;SDS011;29197;44.788;10.366;2023-09-19T00:51:44;8.00;;;3.53;;
43606;SDS011;29197;44.788;10.366;2023-09-19T00:54:35;10.32;;;4.15;;
43606;SDS011;29197;44.788;10.366;2023-09-19T00:57:24;14.43;;;3.75;;
43606;SDS011;29197;44.788;10.366;2023-09-19T01:00:13;8.82;;;3.97;;
43606;SDS011;29197;44.788;10.366;2023-09-19T01:03:03;7.75;;;3.42;;
43606;SDS011;29197;44.788;10.366;2023-09-19T01:05:53;7.05;;;3.55;;
43606;SDS011;29197;44.788;10.366;2023-09-19T01:08:42;11.70;;;3.67;;
43606;SDS011;29197;44.788;10.366;2023-09-19T01:11:33;18.77;;;4.63;;
43606;SDS011;29197;44.788;10.366;2023-09-19T01:14:35;16.33;;;4.05;;
43606;SDS011;29197;44.788;10.366;2023-09-19T01:17:28;14.85;;;5.32;;
43606;SDS011;29197;44.788;10.366;2023-09-19T01:20:21;14.10;;;4.63;;
43606;SDS011;29197;44.788;10.366;2023-09-19T01:23:14;12.95;;;4.43;;
43606;SDS011;29197;44.788;10.366;2023-09-19T01:26:07;11.00;;;4.97;;
43606;SDS011;29197;44.788;10.366;2023-09-19T01:29:12;13.65;;;3.83;;
43606;SDS011;29197;44.788;10.366;2023-09-19T01:32:08;12.30;;;5.18;;
43606;SDS011;29197;44.788;10.366;2023-09-19T01:34:57;10.18;;;4.38;;
43606;SDS011;29197;44.788;10.366;2023-09-19T01:37:50;10.63;;;4.38;;
43606;SDS011;29197;44.788;10.366;2023-09-19T01:40:41;12.82;;;5.10;;
43606;SDS011;29197;44.788;10.366;2023-09-19T01:43:31;10.95;;;5.65;;
43606;SDS011;29197;44.788;10.366;2023-09-19T01:46:23;13.43;;;4.13;;
43606;SDS011;29197;44.788;10.366;2023-09-19T01:49:18;16.35;;;5.22;;
43606;SDS011;29197;44.788;10.366;2023-09-19T01:52:11;10.43;;;4.63;;
43606;SDS011;29197;44.788;10.366;2023-09-19T01:55:05;11.38;;;4.88;;
43606;SDS011;29197;44.788;10.366;2023-09-19T01:57:58;13.82;;;4.85;;
43606;SDS011;29197;44.788;10.366;2023-09-19T02:00:51;11.68;;;4.70;;
43606;SDS011;29197;44.788;10.366;2023-09-19T02:03:40;9.43;;;3.97;;
43606;SDS011;29197;44.788;10.366;2023-09-19T02:06:32;12.63;;;4.00;;
43606;SDS011;29197;44.788;10.366;2023-09-19T02:09:22;9.60;;;4.63;;
43606;SDS011;29197;44.788;10.366;2023-09-19T02:12:10;12.75;;;3.80;;
43606;SDS011;29197;44.788;10.366;2023-09-19T02:15:00;10.98;;;4.40;;
43606;SDS011;29197;44.788;10.366;2023-09-19T02:17:49;9.48;;;4.75;;
43606;SDS011;29197;44.788;10.366;2023-09-19T02:20:38;12.70;;;4.57;;
43606;SDS011;29197;44.788;10.366;2023-09-19T02:23:28;13.07;;;4.00;;
43606;SDS011;29197;44.788;10.366;2023-09-19T02:26:17;8.23;;;4.03;;
43606;SDS011;29197;44.788;10.366;2023-09-19T02:29:07;12.25;;;4.55;;
43606;SDS011;29197;44.788;10.366;2023-09-19T02:31:59;14.88;;;5.30;;
43606;SDS011;29197;44.788;10.366;2023-09-19T02:34:50;13.48;;;5.30;;
43606;SDS011;29197;44.788;10.366;2023-09-19T02:37:40;11.13;;;4.15;;
43606;SDS011;29197;44.788;10.366;2023-09-19T02:40:30;11.52;;;4.63;;
43606;SDS011;29197;44.788;10.366;2023-09-19T02:43:23;7.20;;;3.38;;
43606;SDS011;29197;44.788;10.366;2023-09-19T02:46:12;12.82;;;4.00;;
43606;SDS011;29197;44.788;10.366;2023-09-19T02:49:01;11.23;;;4.63;;
43606;SDS011;29197;44.788;10.366;2023-09-19T02:51:51;9.05;;;3.65;;
43606;SDS011;29197;44.788;10.366;2023-09-19T02:54:40;13.32;;;3.65;;
43606;SDS011;29197;44.788;10.366;2023-09-19T02:57:33;12.98;;;4.90;;
43606;SDS011;29197;44.788;10.366;2023-09-19T03:00:22;10.05;;;4.13;;
43606;SDS011;29197;44.788;10.366;2023-09-19T03:03:11;7.88;;;3.63;;
43606;SDS011;29197;44.788;10.366;2023-09-19T03:06:02;10.27;;;4.22;;
43606;SDS011;29197;44.788;10.366;2023-09-19T03:08:51;11.90;;;3.92;;
43606;SDS011;29197;44.788;10.366;2023-09-19T03:11:40;15.15;;;5.80;;
43606;SDS011;29197;44.788;10.366;2023-09-19T03:14:30;9.75;;;5.20;;
43606;SDS011;29197;44.788;10.366;2023-09-19T03:17:22;9.82;;;3.95;;
43606;SDS011;29197;44.788;10.366;2023-09-19T03:20:11;10.05;;;3.83;;
43606;SDS011;29197;44.788;10.366;2023-09-19T03:23:04;13.13;;;3.70;;
43606;SDS011;29197;44.788;10.366;2023-09-19T03:25:54;14.63;;;4.80;;
43606;SDS011;29197;44.788;10.366;2023-09-19T03:28:43;10.35;;;4.63;;
43606;SDS011;29197;44.788;10.366;2023-09-19T03:31:34;17.42;;;5.18;;
43606;SDS011;29197;44.788;10.366;2023-09-19T03:34:24;10.40;;;4.20;;
43606;SDS011;29197;44.788;10.366;2023-09-19T03:37:13;11.70;;;4.53;;
43606;SDS011;29197;44.788;10.366;2023-09-19T03:40:02;15.93;;;5.07;;
43606;SDS011;29197;44.788;10.366;2023-09-19T03:42:52;9.93;;;4.03;;
43606;SDS011;29197;44.788;10.366;2023-09-19T03:45:41;9.63;;;4.15;;
43606;SDS011;29197;44.788;10.366;2023-09-19T03:48:31;14.13;;;4.45;;
43606;SDS011;29197;44.788;10.366;2023-09-19T03:51:20;11.05;;;4.18;;
43606;SDS011;29197;44.788;10.366;2023-09-19T03:54:09;10.63;;;4.18;;
43606;SDS011;29197;44.788;10.366;2023-09-19T03:56:58;14.43;;;3.80;;
43606;SDS011;29197;44.788;10.366;2023-09-19T03:59:47;6.88;;;3.63;;
43606;SDS011;29197;44.788;10.366;2023-09-19T04:02:35;14.75;;;3.63;;
43606;SDS011;29197;44.788;10.366;2023-09-19T04:05:26;10.20;;;3.83;;
43606;SDS011;29197;44.788;10.366;2023-09-19T04:08:14;11.05;;;3.83;;
43606;SDS011;29197;44.788;10.366;2023-09-19T04:11:03;14.45;;;4.85;;
43606;SDS011;29197;44.788;10.366;2023-09-19T04:13:51;12.95;;;5.45;;
43606;SDS011;29197;44.788;10.366;2023-09-19T04:16:40;15.48;;;4.78;;
43606;SDS011;29197;44.788;10.366;2023-09-19T04:19:29;12.27;;;4.45;;
43606;SDS011;29197;44.788;10.366;2023-09-19T04:22:19;10.88;;;4.43;;
43606;SDS011;29197;44.788;10.366;2023-09-19T04:25:08;9.65;;;4.20;;
43606;SDS011;29197;44.788;10.366;2023-09-19T04:27:57;10.80;;;3.95;;
43606;SDS011;29197;44.788;10.366;2023-09-19T04:30:46;13.07;;;4.53;;
43606;SDS011;29197;44.788;10.366;2023-09-19T04:33:35;15.63;;;4.05;;
43606;SDS011;29197;44.788;10.366;2023-09-19T04:36:24;13.18;;;4.38;;
43606;SDS011;29197;44.788;10.366;2023-09-19T04:39:22;16.67;;;4.85;;
43606;SDS011;29197;44.788;10.366;2023-09-19T04:42:12;12.07;;;5.00;;
43606;SDS011;29197;44.788;10.366;2023-09-19T04:45:02;9.40;;;4.85;;
43606;SDS011;29197;44.788;10.366;2023-09-19T04:47:52;11.68;;;5.78;;
43606;SDS011;29197;44.788;10.366;2023-09-19T04:50:41;16.98;;;6.38;;
43606;SDS011;29197;44.788;10.366;2023-09-19T04:53:30;14.73;;;6.47;;
43606;SDS011;29197;44.788;10.366;2023-09-19T04:56:20;15.07;;;7.38;;
43606;SDS011;29197;44.788;10.366;2023-09-19T04:59:10;14.38;;;7.53;;
43606;SDS011;29197;44.788;10.366;2023-09-19T05:01:59;18.48;;;8.27;;
43606;SDS011;29197;44.788;10.366;2023-09-19T05:04:48;19.15;;;9.70;;
43606;SDS011;29197;44.788;10.366;2023-09-19T05:07:38;23.90;;;10.63;;
43606;SDS011;29197;44.788;10.366;2023-09-19T05:10:27;22.13;;;10.27;;
43606;SDS011;29197;44.788;10.366;2023-09-19T05:13:18;18.75;;;9.73;;
43606;SDS011;29197;44.788;10.366;2023-09-19T05:16:07;17.45;;;10.65;;
43606;SDS011;29197;44.788;10.366;2023-09-19T05:18:56;21.63;;;11.88;;
43606;SDS011;29197;44.788;10.366;2023-09-19T05:21:46;23.42;;;11.05;;
43606;SDS011;29197;44.788;10.366;2023-09-19T05:24:35;15.88;;;10.85;;
43606;SDS011;29197;44.788;10.366;2023-09-19T05:27:25;22.10;;;11.73;;
43606;SDS011;29197;44.788;10.366;2023-09-19T05:30:16;22.60;;;12.30;;
43606;SDS011;29197;44.788;10.366;2023-09-19T05:33:05;30.23;;;14.80;;
43606;SDS011;29197;44.788;10.366;2023-09-19T05:35:54;23.33;;;12.15;;
43606;SDS011;29197;44.788;10.366;2023-09-19T05:38:43;31.55;;;15.25;;
43606;SDS011;29197;44.788;10.366;2023-09-19T05:41:32;24.58;;;12.82;;
43606;SDS011;29197;44.788;10.366;2023-09-19T05:44:23;24.25;;;13.80;;
43606;SDS011;29197;44.788;10.366;2023-09-19T05:47:13;22.30;;;12.43;;
43606;SDS011;29197;44.788;10.366;2023-09-19T05:50:02;20.77;;;12.30;;
43606;SDS011;29197;44.788;10.366;2023-09-19T05:52:52;27.00;;;14.93;;
43606;SDS011;29197;44.788;10.366;2023-09-19T05:55:43;18.10;;;12.02;;
43606;SDS011;29197;44.788;10.366;2023-09-19T05:58:32;29.20;;;14.68;;
43606;SDS011;29197;44.788;10.366;2023-09-19T06:01:21;24.77;;;14.05;;
43606;SDS011;29197;44.788;10.366;2023-09-19T06:04:11;20.27;;;11.93;;
43606;SDS011;29197;44.788;10.366;2023-09-19T06:07:00;21.48;;;12.20;;
43606;SDS011;29197;44.788;10.366;2023-09-19T06:09:50;22.73;;;11.43;;
43606;SDS011;29197;44.788;10.366;2023-09-19T06:12:40;23.05;;;13.32;;
43606;SDS011;29197;44.788;10.366;2023-09-19T06:15:30;24.05;;;12.55;;
43606;SDS011;29197;44.788;10.366;2023-09-19T06:18:20;32.85;;;14.55;;
43606;SDS011;29197;44.788;10.366;2023-09-19T06:21:13;38.80;;;18.45;;
43606;SDS011;29197;44.788;10.366;2023-09-19T06:24:02;33.60;;;18.08;;
43606;SDS011;29197;44.788;10.366;2023-09-19T06:26:51;29.92;;;16.58;;
43606;SDS011;29197;44.788;10.366;2023-09-19T06:29:40;38.92;;;19.35;;
43606;SDS011;29197;44.788;10.366;2023-09-19T06:32:29;39.95;;;22.35;;
43606;SDS011;29197;44.788;10.366;2023-09-19T06:35:17;31.90;;;17.85;;
43606;SDS011;29197;44.788;10.366;2023-09-19T06:38:08;36.92;;;18.80;;
43606;SDS011;29197;44.788;10.366;2023-09-19T06:41:00;34.10;;;20.10;;
43606;SDS011;29197;44.788;10.366;2023-09-19T06:43:51;35.45;;;19.80;;
43606;SDS011;29197;44.788;10.366;2023-09-19T06:46:40;31.60;;;17.77;;
43606;SDS011;29197;44.788;10.366;2023-09-19T06:49:33;26.15;;;16.25;;
43606;SDS011;29197;44.788;10.366;2023-09-19T06:52:22;36.42;;;19.98;;
43606;SDS011;29197;44.788;10.366;2023-09-19T06:55:12;31.90;;;19.80;;
43606;SDS011;29197;44.788;10.366;2023-09-19T06:58:03;26.40;;;16.38;;
43606;SDS011;29197;44.788;10.366;2023-09-19T07:00:52;32.60;;;18.15;;
43606;SDS011;29197;44.788;10.366;2023-09-19T07:03:41;27.00;;;15.98;;
43606;SDS011;29197;44.788;10.366;2023-09-19T07:06:32;41.78;;;22.08;;
43606;SDS011;29197;44.788;10.366;2023-09-19T07:09:21;32.75;;;18.50;;
43606;SDS011;29197;44.788;10.366;2023-09-19T07:12:12;33.88;;;19.20;;
43606;SDS011;29197;44.788;10.366;2023-09-19T07:15:00;34.00;;;19.10;;
43606;SDS011;29197;44.788;10.366;2023-09-19T07:17:50;27.20;;;17.15;;
43606;SDS011;29197;44.788;10.366;2023-09-19T07:20:38;27.83;;;15.93;;
43606;SDS011;29197;44.788;10.366;2023-09-19T07:23:32;30.63;;;17.70;;
43606;SDS011;29197;44.788;10.366;2023-09-19T07:26:21;27.52;;;17.95;;
43606;SDS011;29197;44.788;10.366;2023-09-19T07:29:12;35.33;;;17.02;;
43606;SDS011;29197;44.788;10.366;2023-09-19T07:32:00;26.35;;;15.43;;
43606;SDS011;29197;44.788;10.366;2023-09-19T07:34:49;25.65;;;13.65;;
43606;SDS011;29197;44.788;10.366;2023-09-19T07:37:38;25.13;;;13.82;;
43606;SDS011;29197;44.788;10.366;2023-09-19T07:40:27;33.33;;;15.20;;
43606;SDS011;29197;44.788;10.366;2023-09-19T07:43:17;29.45;;;12.60;;
43606;SDS011;29197;44.788;10.366;2023-09-19T07:46:07;31.65;;;16.10;;
43606;SDS011;29197;44.788;10.366;2023-09-19T07:48:57;25.77;;;15.23;;
43606;SDS011;29197;44.788;10.366;2023-09-19T07:51:46;24.73;;;14.48;;
43606;SDS011;29197;44.788;10.366;2023-09-19T07:54:35;20.38;;;11.57;;
43606;SDS011;29197;44.788;10.366;2023-09-19T07:57:25;24.02;;;14.50;;
43606;SDS011;29197;44.788;10.366;2023-09-19T08:00:15;20.00;;;13.30;;
43606;SDS011;29197;44.788;10.366;2023-09-19T08:03:06;19.65;;;11.95;;
43606;SDS011;29197;44.788;10.366;2023-09-19T08:06:03;23.13;;;13.30;;
43606;SDS011;29197;44.788;10.366;2023-09-19T08:08:52;28.15;;;15.02;;
43606;SDS011;29197;44.788;10.366;2023-09-19T08:11:41;20.13;;;11.23;;
43606;SDS011;29197;44.788;10.366;2023-09-19T08:14:32;25.90;;;15.60;;
43606;SDS011;29197;44.788;10.366;2023-09-19T08:17:23;18.63;;;11.88;;
43606;SDS011;29197;44.788;10.366;2023-09-19T08:20:14;20.15;;;12.65;;
43606;SDS011;29197;44.788;10.366;2023-09-19T08:23:04;24.92;;;13.52;;
43606;SDS011;29197;44.788;10.366;2023-09-19T08:25:56;24.05;;;14.07;;
43606;SDS011;29197;44.788;10.366;2023-09-19T08:28:49;17.73;;;9.27;;
43606;SDS011;29197;44.788;10.366;2023-09-19T08:31:40;18.63;;;10.55;;
43606;SDS011;29197;44.788;10.366;2023-09-19T08:34:29;18.17;;;11.05;;
43606;SDS011;29197;44.788;10.366;2023-09-19T08:37:22;17.45;;;11.70;;
43606;SDS011;29197;44.788;10.366;2023-09-19T08:40:11;17.55;;;10.48;;
43606;SDS011;29197;44.788;10.366;2023-09-19T08:43:00;10.23;;;7.97;;
43606;SDS011;29197;44.788;10.366;2023-09-19T08:45:49;10.90;;;7.78;;
43606;SDS011;29197;44.788;10.366;2023-09-19T08:48:39;15.50;;;9.13;;
43606;SDS011;29197;44.788;10.366;2023-09-19T08:51:30;14.55;;;9.23;;
43606;SDS011;29197;44.788;10.366;2023-09-19T08:54:24;16.85;;;10.02;;
43606;SDS011;29197;44.788;10.366;2023-09-19T08:57:14;15.23;;;8.98;;
43606;SDS011;29197;44.788;10.366;2023-09-19T09:00:08;13.75;;;8.85;;
43606;SDS011;29197;44.788;10.366;2023-09-19T09:02:58;12.30;;;8.20;;
43606;SDS011;29197;44.788;10.366;2023-09-19T09:05:47;20.27;;;10.63;;
43606;SDS011;29197;44.788;10.366;2023-09-19T09:08:39;15.02;;;9.63;;
43606;SDS011;29197;44.788;10.366;2023-09-19T09:11:29;13.57;;;8.90;;
43606;SDS011;29197;44.788;10.366;2023-09-19T09:14:21;21.05;;;11.43;;
43606;SDS011;29197;44.788;10.366;2023-09-19T09:17:10;17.38;;;9.90;;
43606;SDS011;29197;44.788;10.366;2023-09-19T09:19:59;18.52;;;11.20;;
43606;SDS011;29197;44.788;10.366;2023-09-19T09:22:51;19.58;;;10.63;;
43606;SDS011;29197;44.788;10.366;2023-09-19T09:25:48;14.32;;;8.15;;
43606;SDS011;29197;44.788;10.366;2023-09-19T09:28:45;17.00;;;8.20;;
43606;SDS011;29197;44.788;10.366;2023-09-19T09:31:36;21.77;;;9.57;;
43606;SDS011;29197;44.788;10.366;2023-09-19T09:34:32;23.10;;;11.70;;
43606;SDS011;29197;44.788;10.366;2023-09-19T09:37:21;19.75;;;11.07;;
43606;SDS011;29197;44.788;10.366;2023-09-19T09:40:11;28.60;;;15.10;;
43606;SDS011;29197;44.788;10.366;2023-09-19T09:43:32;27.30;;;13.43;;
43606;SDS011;29197;44.788;10.366;2023-09-19T09:46:27;20.45;;;12.07;;
43606;SDS011;29197;44.788;10.366;2023-09-19T09:49:34;23.25;;;12.23;;
43606;SDS011;29197;44.788;10.366;2023-09-19T09:52:23;16.00;;;9.52;;
43606;SDS011;29197;44.788;10.366;2023-09-19T09:55:12;22.77;;;12.90;;
43606;SDS011;29197;44.788;10.366;2023-09-19T09:58:17;19.63;;;11.50;;
43606;SDS011;29197;44.788;10.366;2023-09-19T10:01:06;20.00;;;11.48;;
43606;SDS011;29197;44.788;10.366;2023-09-19T10:04:03;22.88;;;13.02;;
43606;SDS011;29197;44.788;10.366;2023-09-19T10:06:52;23.80;;;13.00;;
43606;SDS011;29197;44.788;10.366;2023-09-19T10:09:49;17.45;;;10.52;;
43606;SDS011;29197;44.788;10.366;2023-09-19T10:12:39;24.73;;;12.95;;
43606;SDS011;29197;44.788;10.366;2023-09-19T10:15:31;17.85;;;11.13;;
43606;SDS011;29197;44.788;10.366;2023-09-19T10:18:21;24.65;;;12.70;;
43606;SDS011;29197;44.788;10.366;2023-09-19T10:21:11;20.17;;;12.25;;
43606;SDS011;29197;44.788;10.366;2023-09-19T10:24:01;23.23;;;11.60;;
43606;SDS011;29197;44.788;10.366;2023-09-19T10:26:54;19.25;;;11.52;;
43606;SDS011;29197;44.788;10.366;2023-09-19T10:29:44;16.45;;;9.63;;
43606;SDS011;29197;44.788;10.366;2023-09-19T10:32:36;16.13;;;10.07;;
43606;SDS011;29197;44.788;10.366;2023-09-19T10:35:29;17.95;;;10.10;;
43606;SDS011;29197;44.788;10.366;2023-09-19T10:38:19;22.08;;;11.02;;
43606;SDS011;29197;44.788;10.366;2023-09-19T10:41:11;21.38;;;9.23;;
43606;SDS011;29197;44.788;10.366;2023-09-19T10:44:03;18.60;;;9.85;;
43606;SDS011;29197;44.788;10.366;2023-09-19T10:46:53;26.73;;;14.98;;
43606;SDS011;29197;44.788;10.366;2023-09-19T10:49:44;15.27;;;8.60;;
43606;SDS011;29197;44.788;10.366;2023-09-19T10:52:34;14.43;;;8.25;;
43606;SDS011;29197;44.788;10.366;2023-09-19T10:55:30;15.25;;;8.63;;
43606;SDS011;29197;44.788;10.366;2023-09-19T10:58:26;13.88;;;8.50;;
43606;SDS011;29197;44.788;10.366;2023-09-19T11:01:15;16.95;;;8.50;;
43606;SDS011;29197;44.788;10.366;2023-09-19T11:07:10;19.00;;;11.43;;
43606;SDS011;29197;44.788;10.366;2023-09-19T11:09:59;15.90;;;9.10;;
43606;SDS011;29197;44.788;10.366;2023-09-19T11:12:51;16.75;;;8.35;;
43606;SDS011;29197;44.788;10.366;2023-09-19T11:16:03;12.55;;;6.80;;
43606;SDS011;29197;44.788;10.366;2023-09-19T11:18:55;11.13;;;5.95;;
43606;SDS011;29197;44.788;10.366;2023-09-19T11:21:53;15.52;;;8.52;;
43606;SDS011;29197;44.788;10.366;2023-09-19T11:24:45;16.90;;;8.68;;
43606;SDS011;29197;44.788;10.366;2023-09-19T11:27:34;16.33;;;8.65;;
43606;SDS011;29197;44.788;10.366;2023-09-19T11:30:28;14.35;;;7.35;;
43606;SDS011;29197;44.788;10.366;2023-09-19T11:33:17;11.32;;;6.18;;
43606;SDS011;29197;44.788;10.366;2023-09-19T11:36:13;19.50;;;8.23;;
43606;SDS011;29197;44.788;10.366;2023-09-19T11:39:03;12.18;;;7.35;;
43606;SDS011;29197;44.788;10.366;2023-09-19T11:42:01;8.48;;;5.63;;
43606;SDS011;29197;44.788;10.366;2023-09-19T11:48:19;11.45;;;5.72;;
43606;SDS011;29197;44.788;10.366;2023-09-19T11:51:16;14.80;;;6.10;;
43606;SDS011;29197;44.788;10.366;2023-09-19T11:54:10;12.15;;;5.53;;
43606;SDS011;29197;44.788;10.366;2023-09-19T11:57:02;12.32;;;6.18;;
43606;SDS011;29197;44.788;10.366;2023-09-19T11:59:51;9.73;;;5.20;;
43606;SDS011;29197;44.788;10.366;2023-09-19T12:02:41;8.10;;;4.82;;
43606;SDS011;29197;44.788;10.366;2023-09-19T12:05:35;9.43;;;5.20;;
43606;SDS011;29197;44.788;10.366;2023-09-19T12:08:24;10.32;;;5.20;;
43606;SDS011;29197;44.788;10.366;2023-09-19T12:11:14;16.10;;;7.82;;
43606;SDS011;29197;44.788;10.366;2023-09-19T12:14:03;14.45;;;7.13;;
43606;SDS011;29197;44.788;10.366;2023-09-19T12:16:53;9.85;;;5.25;;
43606;SDS011;29197;44.788;10.366;2023-09-19T12:19:49;7.38;;;4.18;;
43606;SDS011;29197;44.788;10.366;2023-09-19T12:22:40;19.67;;;8.23;;
43606;SDS011;29197;44.788;10.366;2023-09-19T12:25:40;12.18;;;7.30;;
43606;SDS011;29197;44.788;10.366;2023-09-19T12:28:38;16.83;;;8.32;;
43606;SDS011;29197;44.788;10.366;2023-09-19T12:31:30;9.30;;;5.18;;
43606;SDS011;29197;44.788;10.366;2023-09-19T12:34:23;9.95;;;5.45;;
43606;SDS011;29197;44.788;10.366;2023-09-19T12:37:14;10.93;;;5.85;;
43606;SDS011;29197;44.788;10.366;2023-09-19T12:40:09;12.77;;;6.13;;
43606;SDS011;29197;44.788;10.366;2023-09-19T12:43:05;10.48;;;5.57;;
43606;SDS011;29197;44.788;10.366;2023-09-19T12:45:55;7.07;;;5.03;;
43606;SDS011;29197;44.788;10.366;2023-09-19T12:48:46;14.43;;;7.43;;
43606;SDS011;29197;44.788;10.366;2023-09-19T12:51:35;11.52;;;5.70;;
43606;SDS011;29197;44.788;10.366;2023-09-19T12:54:24;12.00;;;5.85;;
43606;SDS011;29197;44.788;10.366;2023-09-19T12:57:24;11.70;;;6.07;;
43606;SDS011;29197;44.788;10.366;2023-09-19T13:00:13;11.85;;;5.57;;
43606;SDS011;29197;44.788;10.366;2023-09-19T13:03:12;9.35;;;5.40;;
43606;SDS011;29197;44.788;10.366;2023-09-19T13:06:03;10.00;;;5.00;;
43606;SDS011;29197;44.788;10.366;2023-09-19T13:09:07;10.02;;;4.47;;
43606;SDS011;29197;44.788;10.366;2023-09-19T13:11:56;12.88;;;6.30;;
43606;SDS011;29197;44.788;10.366;2023-09-19T13:14:47;6.55;;;4.13;;
43606;SDS011;29197;44.788;10.366;2023-09-19T13:17:58;10.75;;;5.05;;
43606;SDS011;29197;44.788;10.366;2023-09-19T13:23:53;10.75;;;5.45;;
43606;SDS011;29197;44.788;10.366;2023-09-19T13:26:45;8.25;;;4.57;;
43606;SDS011;29197;44.788;10.366;2023-09-19T13:29:34;8.88;;;4.63;;
43606;SDS011;29197;44.788;10.366;2023-09-19T13:32:24;9.13;;;4.38;;
43606;SDS011;29197;44.788;10.366;2023-09-19T13:35:14;12.93;;;5.22;;
43606;SDS011;29197;44.788;10.366;2023-09-19T13:38:03;10.43;;;5.30;;
43606;SDS011;29197;44.788;10.366;2023-09-19T13:40:53;8.82;;;4.00;;
43606;SDS011;29197;44.788;10.366;2023-09-19T13:43:43;7.35;;;4.32;;
43606;SDS011;29197;44.788;10.366;2023-09-19T13:46:36;7.45;;;4.50;;
43606;SDS011;29197;44.788;10.366;2023-09-19T13:49:26;9.90;;;3.80;;
43606;SDS011;29197;44.788;10.366;2023-09-19T13:52:15;8.77;;;4.30;;
43606;SDS011;29197;44.788;10.366;2023-09-19T13:55:04;8.68;;;4.68;;
43606;SDS011;29197;44.788;10.366;2023-09-19T13:57:53;13.55;;;5.47;;
43606;SDS011;29197;44.788;10.366;2023-09-19T14:00:43;7.97;;;4.07;;
43606;SDS011;29197;44.788;10.366;2023-09-19T14:03:32;11.32;;;4.80;;
43606;SDS011;29197;44.788;10.366;2023-09-19T14:06:22;8.30;;;4.47;;
43606;SDS011;29197;44.788;10.366;2023-09-19T14:09:12;5.82;;;3.95;;
43606;SDS011;29197;44.788;10.366;2023-09-19T14:12:01;7.65;;;4.03;;
43606;SDS011;29197;44.788;10.366;2023-09-19T14:14:49;8.52;;;3.50;;
43606;SDS011;29197;44.788;10.366;2023-09-19T14:17:38;8.95;;;3.97;;
43606;SDS011;29197;44.788;10.366;2023-09-19T14:20:29;13.15;;;5.25;;
43606;SDS011;29197;44.788;10.366;2023-09-19T14:23:19;7.80;;;4.80;;
43606;SDS011;29197;44.788;10.366;2023-09-19T14:26:09;12.57;;;4.97;;
43606;SDS011;29197;44.788;10.366;2023-09-19T14:28:58;11.60;;;5.80;;
43606;SDS011;29197;44.788;10.366;2023-09-19T14:31:47;9.75;;;4.57;;
43606;SDS011;29197;44.788;10.366;2023-09-19T14:34:38;10.10;;;4.43;;
43606;SDS011;29197;44.788;10.366;2023-09-19T14:37:29;9.23;;;4.43;;
43606;SDS011;29197;44.788;10.366;2023-09-19T14:40:20;12.30;;;4.50;;
43606;SDS011;29197;44.788;10.366;2023-09-19T14:43:09;9.00;;;4.28;;
43606;SDS011;29197;44.788;10.366;2023-09-19T14:46:02;7.03;;;4.38;;
43606;SDS011;29197;44.788;10.366;2023-09-19T14:48:51;6.28;;;4.15;;
43606;SDS011;29197;44.788;10.366;2023-09-19T14:51:40;8.40;;;3.92;;
43606;SDS011;29197;44.788;10.366;2023-09-19T14:54:31;8.60;;;4.82;;
43606;SDS011;29197;44.788;10.366;2023-09-19T14:57:21;13.45;;;4.40;;
43606;SDS011;29197;44.788;10.366;2023-09-19T15:00:12;10.18;;;5.00;;
43606;SDS011;29197;44.788;10.366;2023-09-19T15:03:02;11.60;;;4.40;;
43606;SDS011;29197;44.788;10.366;2023-09-19T15:05:58;5.38;;;3.33;;
43606;SDS011;29197;44.788;10.366;2023-09-19T15:08:47;10.10;;;4.55;;
43606;SDS011;29197;44.788;10.366;2023-09-19T15:11:37;7.55;;;4.05;;
43606;SDS011;29197;44.788;10.366;2023-09-19T15:14:27;7.80;;;4.43;;
43606;SDS011;29197;44.788;10.366;2023-09-19T15:17:17;6.95;;;3.97;;
43606;SDS011;29197;44.788;10.366;2023-09-19T15:20:07;6.03;;;3.53;;
43606;SDS011;29197;44.788;10.366;2023-09-19T15:23:00;7.70;;;3.88;;
43606;SDS011;29197;44.788;10.366;2023-09-19T15:25:49;7.28;;;4.05;;
43606;SDS011;29197;44.788;10.366;2023-09-19T15:28:40;6.65;;;4.07;;
43606;SDS011;29197;44.788;10.366;2023-09-19T15:31:30;14.07;;;5.32;;
43606;SDS011;29197;44.788;10.366;2023-09-19T15:34:19;10.25;;;5.20;;
43606;SDS011;29197;44.788;10.366;2023-09-19T15:37:08;8.18;;;4.00;;
43606;SDS011;29197;44.788;10.366;2023-09-19T15:39:57;6.78;;;3.08;;
43606;SDS011;29197;44.788;10.366;2023-09-19T15:42:46;2.47;;;1.55;;
43606;SDS011;29197;44.788;10.366;2023-09-19T15:45:35;4.20;;;1.90;;
43606;SDS011;29197;44.788;10.366;2023-09-19T15:48:25;3.55;;;1.75;;
43606;SDS011;29197;44.788;10.366;2023-09-19T15:51:14;2.08;;;1.45;;
43606;SDS011;29197;44.788;10.366;2023-09-19T15:54:06;4.07;;;2.10;;
43606;SDS011;29197;44.788;10.366;2023-09-19T15:56:55;2.72;;;1.13;;
43606;SDS011;29197;44.788;10.366;2023-09-19T15:59:44;1.90;;;1.00;;
43606;SDS011;29197;44.788;10.366;2023-09-19T16:02:33;5.45;;;1.10;;
43606;SDS011;29197;44.788;10.366;2023-09-19T16:05:24;2.67;;;1.17;;
43606;SDS011;29197;44.788;10.366;2023-09-19T16:08:13;3.92;;;1.20;;
43606;SDS011;29197;44.788;10.366;2023-09-19T16:11:02;2.83;;;1.27;;
43606;SDS011;29197;44.788;10.366;2023-09-19T16:13:51;3.40;;;1.10;;
43606;SDS011;29197;44.788;10.366;2023-09-19T16:16:40;1.85;;;1.02;;
43606;SDS011;29197;44.788;10.366;2023-09-19T16:19:30;4.20;;;0.90;;
43606;SDS011;29197;44.788;10.366;2023-09-19T16:22:20;2.50;;;1.15;;
43606;SDS011;29197;44.788;10.366;2023-09-19T16:25:09;2.10;;;0.70;;
43606;SDS011;29197;44.788;10.366;2023-09-19T16:27:59;5.00;;;1.40;;
43606;SDS011;29197;44.788;10.366;2023-09-19T16:30:48;2.05;;;1.00;;
43606;SDS011;29197;44.788;10.366;2023-09-19T16:33:37;1.27;;;0.80;;
43606;SDS011;29197;44.788;10.366;2023-09-19T16:36:27;2.58;;;0.82;;
43606;SDS011;29197;44.788;10.366;2023-09-19T16:39:19;2.20;;;0.90;;
43606;SDS011;29197;44.788;10.366;2023-09-19T16:42:08;1.70;;;0.80;;
43606;SDS011;29197;44.788;10.366;2023-09-19T16:45:07;3.92;;;1.60;;
43606;SDS011;29197;44.788;10.366;2023-09-19T16:47:57;6.22;;;1.80;;